createdAt,value
2018-07-31T00:03:00.572Z,26.84
2018-07-31T00:08:02.758Z,26.85
2018-07-31T00:13:04.951Z,26.95
2018-07-31T00:18:07.114Z,26.84
2018-07-31T00:23:09.234Z,26.77
2018-07-31T00:28:11.417Z,26.76
2018-07-31T00:33:13.569Z,26.68
2018-07-31T00:38:15.761Z,26.79
2018-07-31T00:43:17.941Z,26.80
2018-07-31T00:48:20.125Z,26.74
2018-07-31T00:53:22.306Z,26.76
2018-07-31T00:58:24.430Z,26.67
2018-07-31T01:03:26.558Z,26.65
2018-07-31T01:08:28.706Z,26.55
2018-07-31T01:13:30.878Z,26.59
2018-07-31T01:18:33.034Z,26.61
2018-07-31T01:23:35.165Z,26.54
2018-07-31T01:28:37.342Z,26.42
2018-07-31T01:33:39.482Z,26.35
2018-07-31T01:38:41.662Z,26.35
2018-07-31T01:43:43.794Z,26.30
2018-07-31T01:48:45.910Z,26.20
2018-07-31T01:53:48.058Z,26.13
2018-07-31T01:58:50.183Z,26.25
2018-07-31T02:03:52.304Z,26.12
2018-07-31T02:08:55.124Z,26.01
2018-07-31T02:13:57.247Z,26.02
2018-07-31T02:18:59.396Z,26.04
2018-07-31T02:24:01.571Z,26.16
2018-07-31T02:29:03.782Z,26.19
2018-07-31T02:34:06.070Z,26.09
2018-07-31T02:39:08.210Z,26.26
2018-07-31T02:44:10.355Z,26.19
2018-07-31T02:49:12.543Z,26.19
2018-07-31T02:54:14.667Z,26.16
2018-07-31T02:59:16.811Z,26.00
2018-07-31T03:04:18.940Z,25.88
2018-07-31T03:09:21.059Z,25.87
2018-07-31T03:14:23.182Z,25.87
2018-07-31T03:19:25.333Z,25.74
2018-07-31T03:24:27.462Z,25.82
2018-07-31T03:29:29.632Z,25.85
2018-07-31T03:34:31.775Z,25.90
2018-07-31T03:39:33.913Z,25.86
2018-07-31T03:44:36.045Z,25.87
2018-07-31T03:49:38.169Z,25.90
2018-07-31T03:54:40.311Z,25.92
2018-07-31T03:59:42.638Z,25.89
2018-07-31T04:04:44.828Z,25.82
2018-07-31T04:09:46.969Z,25.75
2018-07-31T04:14:49.095Z,25.74
2018-07-31T04:19:51.231Z,25.76
2018-07-31T04:24:53.590Z,25.78
2018-07-31T04:29:55.770Z,25.85
2018-07-31T04:34:57.904Z,25.97
2018-07-31T04:40:00.034Z,26.14
2018-07-31T04:45:02.262Z,26.16
2018-07-31T04:50:04.427Z,26.11
2018-07-31T04:55:06.611Z,26.16
2018-07-31T05:00:09.004Z,26.16
2018-07-31T05:05:11.176Z,26.05
2018-07-31T05:10:13.332Z,26.24
2018-07-31T05:15:15.485Z,26.20
2018-07-31T05:20:17.654Z,26.30
2018-07-31T05:25:19.859Z,26.27
2018-07-31T05:30:22.047Z,26.16
2018-07-31T05:35:24.182Z,26.29
2018-07-31T05:40:26.327Z,26.23
2018-07-31T05:45:28.489Z,26.38
2018-07-31T05:50:30.624Z,26.43
2018-07-31T05:55:32.761Z,26.29
2018-07-31T06:00:34.914Z,26.56
2018-07-31T06:05:37.061Z,26.81
2018-07-31T06:10:39.223Z,26.87
2018-07-31T06:15:41.339Z,26.75
2018-07-31T06:20:43.516Z,26.78
2018-07-31T06:25:45.647Z,26.88
2018-07-31T06:30:47.859Z,26.80
2018-07-31T06:35:50.041Z,26.93
2018-07-31T06:40:52.203Z,27.11
2018-07-31T06:45:54.423Z,27.07
2018-07-31T06:50:56.605Z,27.25
2018-07-31T06:55:58.770Z,27.58
2018-07-31T07:01:01.001Z,27.72
2018-07-31T07:06:03.243Z,27.71
2018-07-31T07:11:05.457Z,27.65
2018-07-31T07:16:07.641Z,27.55
2018-07-31T07:21:09.834Z,27.57
2018-07-31T07:26:12.009Z,27.67
2018-07-31T07:31:14.293Z,27.84
2018-07-31T07:36:16.460Z,28.17
2018-07-31T07:41:18.659Z,28.34
2018-07-31T07:46:20.967Z,28.69
2018-07-31T07:51:23.182Z,28.78
2018-07-31T07:56:25.539Z,28.78
2018-07-31T08:01:27.785Z,28.73
2018-07-31T08:06:29.964Z,28.56
2018-07-31T08:11:32.168Z,28.70
2018-07-31T08:16:35.179Z,28.81
2018-07-31T08:21:37.442Z,28.90
2018-07-31T08:26:39.648Z,28.92
2018-07-31T08:31:41.932Z,28.91
2018-07-31T08:36:44.133Z,28.97
2018-07-31T08:41:46.373Z,29.17
2018-07-31T08:46:48.572Z,29.45
2018-07-31T08:51:50.773Z,29.70
2018-07-31T08:56:53.242Z,29.85
2018-07-31T09:01:55.431Z,30.07
2018-07-31T09:06:57.616Z,30.13
2018-07-31T09:11:59.809Z,30.44
2018-07-31T09:17:02.017Z,30.45
2018-07-31T09:22:04.182Z,30.54
2018-07-31T09:27:07.682Z,30.61
2018-07-31T09:32:09.926Z,30.67
2018-07-31T09:37:12.102Z,30.81
2018-07-31T09:42:14.310Z,30.90
2018-07-31T09:47:16.511Z,30.93
2018-07-31T09:52:18.689Z,31.02
2018-07-31T09:57:20.874Z,31.19
2018-07-31T10:02:23.079Z,31.31
2018-07-31T10:07:25.304Z,31.27
2018-07-31T10:12:27.552Z,31.30
2018-07-31T10:17:29.798Z,31.33
2018-07-31T10:22:38.850Z,31.42
2018-07-31T10:27:41.037Z,31.45
2018-07-31T10:32:43.254Z,31.57
2018-07-31T10:37:45.480Z,31.61
2018-07-31T10:42:47.692Z,31.68
2018-07-31T10:47:49.878Z,31.76
2018-07-31T10:52:52.089Z,31.77
2018-07-31T10:57:54.393Z,31.74
2018-07-31T11:02:56.620Z,31.90
2018-07-31T11:07:58.820Z,32.09
2018-07-31T11:13:01.001Z,32.20
2018-07-31T11:18:03.199Z,32.31
2018-07-31T11:23:05.453Z,32.39
2018-07-31T11:28:08.261Z,32.53
2018-07-31T11:33:10.592Z,32.66
2018-07-31T11:38:13.355Z,32.64
2018-07-31T11:43:15.624Z,32.77
2018-07-31T11:48:17.846Z,32.78
2018-07-31T11:53:20.054Z,32.68
2018-07-31T11:58:22.282Z,32.58
2018-07-31T12:03:24.470Z,32.48
2018-07-31T12:08:27.135Z,32.56
2018-07-31T12:13:29.526Z,32.52
2018-07-31T12:18:31.751Z,32.52
2018-07-31T12:23:33.926Z,32.62
2018-07-31T12:28:36.143Z,32.93
2018-07-31T12:33:38.323Z,33.17
2018-07-31T12:38:40.581Z,33.26
2018-07-31T12:43:42.775Z,33.34
2018-07-31T12:48:45.031Z,33.45
2018-07-31T12:53:47.229Z,33.21
2018-07-31T12:58:49.510Z,32.94
2018-07-31T13:03:52.081Z,32.99
2018-07-31T13:08:54.252Z,33.11
2018-07-31T13:13:56.434Z,33.25
2018-07-31T13:18:58.998Z,33.18
2018-07-31T13:24:01.127Z,33.23
2018-07-31T13:29:03.344Z,33.08
2018-07-31T13:34:05.593Z,33.09
2018-07-31T13:39:08.694Z,32.89
2018-07-31T13:44:11.049Z,32.98
2018-07-31T13:49:13.150Z,33.30
2018-07-31T13:54:15.336Z,33.31
2018-07-31T13:59:17.580Z,33.33
2018-07-31T14:04:19.814Z,33.47
2018-07-31T14:09:22.022Z,33.75
2018-07-31T14:14:24.230Z,32.98
2018-07-31T14:19:26.403Z,34.95
2018-07-31T14:24:28.647Z,34.76
2018-07-31T14:29:30.822Z,35.05
2018-07-31T14:34:35.139Z,35.47
2018-07-31T14:39:37.363Z,35.49
2018-07-31T14:44:39.569Z,35.23
2018-07-31T14:49:41.749Z,34.77
2018-07-31T14:54:43.952Z,34.73
2018-07-31T14:59:46.151Z,35.33
2018-07-31T15:04:48.354Z,36.39
2018-07-31T15:09:50.569Z,36.52
2018-07-31T15:14:52.740Z,36.82
2018-07-31T15:19:54.946Z,36.92
2018-07-31T15:24:57.157Z,37.19
2018-07-31T15:29:59.373Z,36.36
2018-07-31T15:35:01.621Z,35.28
2018-07-31T15:40:04.173Z,35.81
2018-07-31T15:45:06.395Z,36.36
2018-07-31T15:50:08.613Z,36.57
2018-07-31T15:55:10.847Z,36.78
2018-07-31T16:00:13.131Z,36.48
2018-07-31T16:05:15.315Z,36.37
2018-07-31T16:10:17.515Z,36.58
2018-07-31T16:15:19.740Z,36.80
2018-07-31T16:20:22.048Z,36.52
2018-07-31T16:25:24.235Z,36.26
2018-07-31T16:30:26.431Z,36.58
2018-07-31T16:35:28.893Z,36.57
2018-07-31T16:40:31.131Z,36.36
2018-07-31T16:45:33.371Z,35.95
2018-07-31T16:50:35.558Z,34.85
2018-07-31T16:55:37.834Z,33.60
2018-07-31T17:00:40.644Z,33.82
2018-07-31T17:05:42.853Z,33.93
2018-07-31T17:10:45.096Z,33.98
2018-07-31T17:15:47.378Z,33.94
2018-07-31T17:20:49.648Z,33.75
2018-07-31T17:25:51.857Z,33.67
2018-07-31T17:30:54.085Z,33.52
2018-07-31T17:35:56.428Z,33.18
2018-07-31T17:40:58.617Z,32.75
2018-07-31T17:46:00.865Z,32.06
2018-07-31T17:51:03.067Z,31.38
2018-07-31T17:56:05.368Z,30.89
2018-07-31T18:01:07.625Z,30.57
2018-07-31T18:06:09.850Z,30.38
2018-07-31T18:11:12.090Z,30.27
2018-07-31T18:16:14.392Z,30.17
2018-07-31T18:21:16.624Z,30.03
2018-07-31T18:26:18.915Z,29.77
2018-07-31T18:31:21.241Z,29.53
2018-07-31T18:36:23.555Z,29.40
2018-07-31T18:41:26.481Z,29.38
2018-07-31T18:46:28.619Z,29.23
2018-07-31T18:51:30.824Z,29.14
2018-07-31T18:56:33.105Z,29.17
2018-07-31T19:01:35.379Z,29.15
2018-07-31T19:06:37.563Z,29.00
2018-07-31T19:11:40.968Z,28.94
2018-07-31T19:16:43.144Z,28.83
2018-07-31T19:21:45.314Z,28.70
2018-07-31T19:26:47.522Z,28.60
2018-07-31T19:31:49.751Z,28.46
2018-07-31T19:36:52.011Z,28.29
2018-07-31T19:41:54.389Z,28.21
2018-07-31T21:39:12.974Z,26.08
2018-07-31T21:44:15.245Z,26.22
2018-07-31T21:49:17.432Z,26.55
2018-07-31T21:54:19.624Z,26.62
2018-07-31T21:59:21.897Z,26.70
2018-07-31T22:04:24.132Z,26.61
2018-07-31T22:09:29.686Z,26.81
2018-07-31T22:14:31.919Z,26.81
2018-07-31T22:19:34.240Z,26.73
2018-07-31T22:24:36.451Z,26.54
2018-07-31T22:29:38.658Z,26.45
2018-07-31T22:34:40.823Z,26.32
2018-07-31T22:39:43.034Z,26.28
2018-07-31T22:44:45.293Z,26.24
2018-07-31T22:49:47.514Z,26.40
2018-07-31T22:54:49.692Z,26.40
2018-07-31T22:59:51.895Z,26.43
2018-07-31T23:04:54.069Z,26.36
2018-07-31T23:09:56.744Z,26.47
2018-07-31T23:14:59.958Z,26.37
2018-07-31T23:20:03.353Z,26.43
2018-07-31T23:25:06.171Z,26.46
2018-07-31T23:30:08.742Z,26.41
2018-07-31T23:35:10.951Z,26.30
2018-07-31T23:40:13.130Z,26.03
2018-07-31T23:45:15.323Z,26.13
2018-07-31T23:50:17.515Z,26.23
2018-07-31T23:55:19.891Z,26.07
